Aérodrome :
LOGIN :

S'inscrire | Disclaimer

   EN    FR    IT 

 










Légende :    VFR   VFR Marginal   IFR   IFR Intensif   IFR Très Intensif
Visi : 
Plafond : 
>= 8 km
>= 3000ft
5 à 8 km
1000 à 3000 ft
1500m à 5 km
500 à 1000 ft
800 à 1500m
200 à 500 ft
< 800m
< 200 ft
Symboles :   Orages  Brouillard  Fortes neiges  Fortes précipitations  Vent > 20 kt
SIGMETs :   Divers  Orages  Givrage  Turbulence  Onde Orograph.  Cendres Volcan.







- Altitude de l'aérodrome : 1302 ft
- Code IATA : GNB
- Voir les cartes d'approche


LFLS - Grenoble / St. Geoirs

DERNIER METAR :
  • 221830Z AUTO 13003KT CAVOK 16/09 Q1022 NOSIG

METARs EXPIRÉS :
  • 221800Z AUTO 03004KT 360V060 CAVOK 18/08 Q1021 NOSIG
  • 221730Z AUTO VRB02KT CAVOK 19/08 Q1021 NOSIG
  • 221700Z AUTO VRB03KT CAVOK 20/09 Q1021 NOSIG
  • 221630Z AUTO VRB02KT CAVOK 20/08 Q1021 NOSIG
  • 221600Z AUTO 36006KT 340V080 CAVOK 21/07 Q1021 NOSIG

TAF TAF LFLS
Valide du 22 à 15h jusqu'au 23 à 15h UTC


221400Z 2215/2315 VRB05KT CAVOK
ATIS : +33 4 76 65 55 89
Pas de NOTAMs connus pour ce terrain.



MET'MAP, la Météo Aéronautique d'un coup d'oeil ! - Copyright ORBIFLY Décembre 2007 - Disclaimer

ORBIFLY MET'MAP TEAM :

Programmation & Développement : Alexandra Zaïnal
Conception & Développement : Baudouin d'Aumeries
Co-Programmation & Développement : Marc-Olivier Méhu
Soutien technique & logistique : Manuel Goepfert

Contact : metmap@orbifly.com




SOURCES & CREDITS :

   NOAA